Time;durP1;ratioP1;P1;durP2;ratioP2;P2;SDS_P1;SDS_P2;PMS_P1;PMS_P2;Temp;Humidity;BMP_temperature;BMP_pressure;BME280_temperature;BME280_humidity;BME280_pressure;Samples;Min_cycle;Max_cycle;Signal;HPM_P1;HPM_P2
2023/11/15 00:00:34;;;;;;;1.73;0.80;;;10.20;99.90;;;10.55;100.00;97489.16;5027628;28;20939;-76
2023/11/15 00:03:04;;;;;;;1.30;0.80;;;10.10;99.90;;;10.55;100.00;97489.16;5025208;28;21122;-77
2023/11/15 00:05:33;;;;;;;1.70;1.53;;;10.10;99.90;;;10.52;100.00;97500.78;5026996;28;20519;-77
2023/11/15 00:08:02;;;;;;;3.20;0.93;;;10.10;99.90;;;10.50;100.00;97496.75;5026946;28;20978;-76
2023/11/15 00:10:31;;;;;;;2.97;1.10;;;10.00;99.90;;;10.40;100.00;97510.25;5025530;28;20991;-77
2023/11/15 00:13:00;;;;;;;3.53;1.20;;;9.90;99.90;;;10.42;100.00;97520.47;5026116;28;20469;-77
2023/11/15 00:15:28;;;;;;;3.40;1.77;;;9.80;99.90;;;10.47;100.00;97523.31;5026458;28;20469;-77
2023/11/15 00:18:04;;;;;;;2.03;1.00;;;9.80;99.90;;;10.45;100.00;97531.34;5026100;28;20477;-77
2023/11/15 00:20:34;;;;;;;6.37;1.40;;;9.90;99.90;;;10.43;100.00;97541.19;5027676;28;20889;-77
2023/11/15 00:23:04;;;;;;;5.50;1.40;;;9.80;99.90;;;10.43;100.00;97554.25;5024532;28;20515;-76
2023/11/15 00:25:33;;;;;;;5.70;1.80;;;10.00;99.90;;;10.44;100.00;97539.41;5028665;28;20543;-76
2023/11/15 00:28:03;;;;;;;3.00;1.20;;;9.90;99.90;;;10.47;100.00;97542.41;5025076;28;20469;-77
2023/11/15 00:30:32;;;;;;;3.73;1.23;;;10.00;99.90;;;10.46;100.00;97553.06;5028068;28;20515;-77
2023/11/15 00:33:01;;;;;;;11.40;1.27;;;10.00;99.90;;;10.46;100.00;97553.88;5025052;28;20472;-76
2023/11/15 00:35:30;;;;;;;2.53;1.10;;;9.90;99.90;;;10.46;100.00;97569.56;5026030;28;20496;-77
2023/11/15 00:38:03;;;;;;;2.90;1.00;;;10.00;99.90;;;10.44;100.00;97566.34;5026757;28;20516;-76
2023/11/15 00:40:32;;;;;;;2.83;1.00;;;9.90;99.90;;;10.45;100.00;97570.53;5030331;28;20466;-77
2023/11/15 00:43:03;;;;;;;8.67;1.30;;;9.90;99.90;;;10.48;100.00;97566.75;5027411;28;20477;-77
2023/11/15 00:45:32;;;;;;;4.60;1.93;;;9.90;99.90;;;10.50;100.00;97564.72;5028816;28;20466;-76
2023/11/15 00:48:00;;;;;;;3.80;1.40;;;9.90;99.90;;;10.44;100.00;97566.34;5030519;28;20996;-77
2023/11/15 00:50:29;;;;;;;4.43;1.43;;;9.80;99.90;;;10.44;100.00;97561.13;5028661;28;20543;-76
2023/11/15 00:52:59;;;;;;;5.17;1.50;;;9.80;99.90;;;10.48;100.00;97578.00;5030649;28;21159;-76
2023/11/15 00:55:27;;;;;;;3.80;1.07;;;9.90;99.90;;;10.50;100.00;97581.22;5029971;28;20505;-76
2023/11/15 00:57:57;;;;;;;4.60;1.10;;;9.90;99.90;;;10.51;100.00;97577.63;5028778;28;20507;-78
2023/11/15 01:00:27;;;;;;;3.23;1.40;;;9.90;99.90;;;10.55;100.00;97585.88;5031154;28;20476;-76
2023/11/15 01:02:57;;;;;;;5.73;1.00;;;10.00;99.90;;;10.55;100.00;97594.50;5030460;28;20458;-77
2023/11/15 01:05:28;;;;;;;5.10;1.20;;;10.00;99.90;;;10.59;100.00;97600.94;5027909;28;20466;-77
2023/11/15 01:07:59;;;;;;;2.40;1.20;;;10.00;99.90;;;10.60;100.00;97602.56;5028071;28;20461;-77
2023/11/15 01:10:28;;;;;;;1.97;1.23;;;10.10;99.90;;;10.62;100.00;97604.19;5029364;28;21095;-76
2023/11/15 01:12:56;;;;;;;8.63;2.00;;;10.10;99.90;;;10.62;100.00;97614.66;5028788;28;20536;-76
2023/11/15 01:15:25;;;;;;;3.23;1.30;;;10.00;99.90;;;10.65;100.00;97614.25;5027860;28;23012;-77
2023/11/15 01:17:56;;;;;;;5.80;1.00;;;10.10;99.90;;;10.66;100.00;97615.84;5026919;28;20961;-76
2023/11/15 01:20:26;;;;;;;9.03;1.40;;;10.10;99.90;;;10.65;100.00;97635.16;5028033;28;20481;-77
2023/11/15 01:22:54;;;;;;;6.83;1.07;;;10.10;99.90;;;10.65;100.00;97624.69;5027786;28;20462;-77
2023/11/15 01:25:30;;;;;;;7.27;1.23;;;10.10;99.90;;;10.66;100.00;97626.28;5028956;28;20470;-77
2023/11/15 01:27:59;;;;;;;8.10;1.20;;;10.20;99.90;;;10.64;100.00;97639.56;5027132;28;20586;-77
2023/11/15 01:30:28;;;;;;;7.50;1.70;;;10.20;99.90;;;10.66;100.00;97642.78;5027046;28;20518;-77
2023/11/15 01:32:57;;;;;;;4.30;1.33;;;10.10;99.90;;;10.65;100.00;97656.09;5028830;28;20473;-77
2023/11/15 01:35:26;;;;;;;3.17;1.00;;;10.00;99.90;;;10.67;100.00;97649.66;5027776;28;20474;-77
2023/11/15 01:37:55;;;;;;;5.53;1.50;;;10.10;99.90;;;10.71;100.00;97656.09;5025984;28;20469;-76
2023/11/15 01:40:26;;;;;;;3.60;1.20;;;10.20;99.90;;;10.70;100.00;97664.13;5027106;28;20496;-77
2023/11/15 01:42:55;;;;;;;2.93;1.17;;;10.20;99.90;;;10.67;100.00;97677.59;5026417;28;20473;-77
2023/11/15 01:45:23;;;;;;;6.67;1.90;;;10.20;99.90;;;10.66;100.00;97683.81;5028684;28;20470;-77
2023/11/15 01:47:52;;;;;;;5.40;1.20;;;10.20;99.90;;;10.70;100.00;97677.19;5029620;28;20516;-76
2023/11/15 01:50:21;;;;;;;2.50;1.03;;;10.30;99.90;;;10.67;100.00;97675.78;5028394;28;20838;-77
2023/11/15 01:52:50;;;;;;;5.23;1.27;;;10.20;99.90;;;10.71;100.00;97670.97;5029626;28;20465;-77
2023/11/15 01:55:21;;;;;;;5.80;1.43;;;10.20;99.90;;;10.72;100.00;97680.44;5028553;28;20496;-77
2023/11/15 01:57:54;;;;;;;17.97;1.50;;;10.20;99.90;;;10.75;100.00;97685.28;5027143;28;20556;-76
2023/11/15 02:00:24;;;;;;;4.73;1.00;;;10.20;99.90;;;10.69;100.00;97689.47;5027393;28;20862;-76
2023/11/15 02:02:53;;;;;;;4.57;1.33;;;10.10;99.90;;;10.70;100.00;97691.09;5029170;28;20465;-76
2023/11/15 02:05:22;;;;;;;8.73;1.50;;;10.10;99.90;;;10.68;100.00;97694.91;5029685;28;20997;-77
2023/11/15 02:07:51;;;;;;;1.87;0.90;;;10.10;99.90;;;10.65;100.00;97705.75;5025442;28;21092;-76
2023/11/15 02:10:20;;;;;;;2.07;0.80;;;10.00;99.90;;;10.68;100.00;97718.44;5028549;28;20551;-77
2023/11/15 02:12:48;;;;;;;3.80;1.03;;;10.00;99.90;;;10.65;100.00;97718.84;5031086;28;20547;-77
2023/11/15 02:15:21;;;;;;;2.73;1.33;;;10.00;99.90;;;10.63;100.00;97720.81;5026538;28;20466;-77
2023/11/15 02:17:49;;;;;;;6.60;1.53;;;10.00;99.90;;;10.58;100.00;97724.84;5031536;28;20497;-77
2023/11/15 02:20:19;;;;;;;4.23;1.30;;;10.00;99.90;;;10.60;100.00;97733.28;5025677;28;21219;-77
2023/11/15 02:22:50;;;;;;;5.10;1.17;;;10.10;99.90;;;10.64;100.00;97743.34;5028012;28;20466;-77
2023/11/15 02:25:21;;;;;;;4.03;1.20;;;10.10;99.90;;;10.63;100.00;97741.75;5026033;28;20843;-76
2023/11/15 02:27:49;;;;;;;15.43;2.20;;;10.10;99.90;;;10.66;100.00;97738.72;5026532;28;20476;-77
2023/11/15 02:30:18;;;;;;;9.83;1.40;;;10.10;99.90;;;10.70;100.00;97748.63;5025324;28;20470;-77
2023/11/15 02:32:47;;;;;;;2.90;1.20;;;10.10;99.90;;;10.70;100.00;97751.22;5028026;28;20494;-77
2023/11/15 02:35:15;;;;;;;2.60;1.00;;;10.10;99.90;;;10.69;100.00;97751.44;5028353;28;20490;-77
2023/11/15 02:37:44;;;;;;;16.33;1.60;;;10.20;99.90;;;10.69;100.00;97759.28;5025746;28;21014;-76
2023/11/15 02:40:13;;;;;;;2.60;0.90;;;10.10;99.90;;;10.69;100.00;97761.91;5026686;28;20470;-77
2023/11/15 02:42:43;;;;;;;4.00;1.27;;;10.20;99.90;;;10.70;100.00;97764.31;5029148;28;20954;-77
2023/11/15 02:45:12;;;;;;;4.20;1.30;;;10.20;99.90;;;10.65;100.00;97771.94;5023700;28;20547;-76
2023/11/15 02:47:40;;;;;;;15.37;1.43;;;10.10;99.90;;;10.66;100.00;97768.31;5025459;28;20470;-77
2023/11/15 02:50:10;;;;;;;5.43;1.30;;;10.20;99.90;;;10.68;100.00;97762.91;5026824;28;20457;-76
2023/11/15 02:52:40;;;;;;;4.60;1.37;;;10.10;99.90;;;10.67;100.00;97769.13;5026797;28;20493;-77
2023/11/15 02:55:10;;;;;;;4.13;1.30;;;10.20;99.90;;;10.71;100.00;97765.13;5028028;28;20454;-76
2023/11/15 02:57:39;;;;;;;4.20;1.67;;;10.20;99.90;;;10.74;100.00;97769.94;5025545;28;21006;-78
2023/11/15 03:00:11;;;;;;;3.87;1.30;;;10.20;99.90;;;10.77;100.00;97774.78;5028200;28;20457;-76
2023/11/15 03:02:40;;;;;;;1.70;0.93;;;10.20;99.90;;;10.76;100.00;97768.75;5027694;28;20545;-76
2023/11/15 03:05:10;;;;;;;2.10;1.13;;;10.10;99.90;;;10.78;100.00;97773.81;5027753;28;20817;-77
2023/11/15 03:07:38;;;;;;;8.30;1.70;;;10.20;99.90;;;10.75;100.00;97768.97;5022086;28;20470;-76
2023/11/15 03:10:09;;;;;;;4.83;1.33;;;10.20;99.90;;;10.76;100.00;97773.19;5028170;28;20459;-77
2023/11/15 03:12:38;;;;;;;8.00;1.43;;;10.10;99.90;;;10.78;100.00;97776.41;5027244;28;20485;-77
2023/11/15 03:15:09;;;;;;;5.03;1.80;;;10.20;99.90;;;10.78;100.00;97777.22;5028875;28;20470;-76
2023/11/15 03:17:38;;;;;;;4.60;1.00;;;10.30;99.90;;;10.78;100.00;97779.03;5026669;28;20963;-78
2023/11/15 03:20:10;;;;;;;2.60;0.90;;;10.30;99.90;;;10.78;100.00;97781.66;5027778;28;20501;-78
2023/11/15 03:22:38;;;;;;;5.80;1.30;;;10.30;99.90;;;10.75;100.00;97782.84;5026169;28;20505;-77
2023/11/15 03:25:08;;;;;;;5.17;1.50;;;10.30;99.90;;;10.72;100.00;97793.69;5023026;28;20576;-76
2023/11/15 03:27:36;;;;;;;5.70;1.20;;;10.20;99.90;;;10.72;100.00;97782.44;5027042;28;20469;-77
2023/11/15 03:30:08;;;;;;;3.73;1.60;;;10.30;99.90;;;10.71;100.00;97799.09;5026242;28;20953;-77
2023/11/15 03:32:37;;;;;;;4.10;1.40;;;10.20;99.90;;;10.70;100.00;97792.25;5026387;28;20502;-76
2023/11/15 03:35:07;;;;;;;2.20;1.30;;;10.20;99.90;;;10.72;100.00;97792.88;5024926;28;20497;-77
2023/11/15 03:37:35;;;;;;;4.13;1.67;;;10.20;99.90;;;10.72;100.00;97803.34;5025183;28;21018;-77
2023/11/15 03:40:08;;;;;;;7.33;1.53;;;10.30;99.90;;;10.70;100.00;97805.34;5026701;28;20466;-77
2023/11/15 03:42:37;;;;;;;2.57;1.40;;;10.20;99.90;;;10.69;100.00;97801.91;5025357;28;20466;-77
2023/11/15 03:45:10;;;;;;;2.90;1.30;;;10.20;99.90;;;10.68;100.00;97795.09;5025341;28;20466;-76
2023/11/15 03:47:38;;;;;;;3.40;1.30;;;10.20;99.90;;;10.66;100.00;97802.28;5026465;28;20460;-77
2023/11/15 03:50:08;;;;;;;6.50;1.50;;;10.20;99.90;;;10.65;100.00;97802.50;5027126;28;20469;-77
2023/11/15 03:52:37;;;;;;;8.43;1.60;;;10.10;99.90;;;10.59;100.00;97819.75;5025371;28;20497;-76
2023/11/15 03:55:06;;;;;;;2.83;1.27;;;10.20;99.90;;;10.59;100.00;97817.13;5028232;28;20509;-77
2023/11/15 03:57:35;;;;;;;7.63;1.97;;;10.20;99.90;;;10.62;100.00;97810.75;5021116;28;20462;-76
2023/11/15 04:00:06;;;;;;;3.53;1.23;;;10.00;99.90;;;10.58;100.00;97807.72;5024337;28;20984;-77
2023/11/15 04:02:36;;;;;;;4.57;1.50;;;9.90;99.90;;;10.54;100.00;97807.28;5024621;28;20516;-77
2023/11/15 04:05:06;;;;;;;8.50;1.80;;;10.00;99.90;;;10.52;100.00;97814.50;5026098;28;21164;-77
2023/11/15 04:07:36;;;;;;;7.77;2.60;;;9.90;99.90;;;10.51;100.00;97822.53;5024828;28;20457;-75
2023/11/15 04:10:05;;;;;;;14.93;6.77;;;9.90;99.90;;;10.47;100.00;97831.75;5025058;28;20464;-77
2023/11/15 04:12:34;;;;;;;12.53;1.57;;;10.00;99.90;;;10.46;100.00;97828.34;5026519;28;21089;-76
2023/11/15 04:15:03;;;;;;;3.40;1.60;;;9.90;99.90;;;10.46;100.00;97824.91;5026172;28;20461;-77
2023/11/15 04:17:32;;;;;;;5.93;1.63;;;9.80;99.90;;;10.46;100.00;97836.19;5030118;28;20476;-77
2023/11/15 04:20:03;;;;;;;3.97;1.10;;;9.80;99.90;;;10.43;100.00;97847.03;5029315;28;20473;-78
2023/11/15 04:22:32;;;;;;;5.17;1.60;;;9.90;99.90;;;10.43;100.00;97836.56;5025675;28;20466;-78
2023/11/15 04:25:00;;;;;;;7.50;2.13;;;9.90;99.90;;;10.37;100.00;97842.56;5028991;28;20457;-77
2023/11/15 04:27:30;;;;;;;8.30;2.30;;;9.90;99.90;;;10.35;100.00;97851.56;5030843;28;20959;-78
2023/11/15 04:29:59;;;;;;;5.00;1.13;;;9.90;99.90;;;10.36;100.00;97851.41;5026608;28;20488;-78
2023/11/15 04:32:27;;;;;;;3.70;1.43;;;9.80;99.90;;;10.35;100.00;97859.41;5028536;28;20485;-78
2023/11/15 04:34:56;;;;;;;7.83;1.47;;;9.90;99.90;;;10.31;100.00;97850.34;5030069;28;20470;-77
2023/11/15 04:37:26;;;;;;;2.73;1.40;;;9.80;99.90;;;10.24;100.00;97859.97;5029358;28;20576;-78
2023/11/15 04:39:55;;;;;;;3.43;1.30;;;9.80;99.90;;;10.28;100.00;97858.56;5030328;28;21470;-78
2023/11/15 04:42:24;;;;;;;5.20;1.43;;;9.70;99.90;;;10.24;100.00;97863.34;5029776;28;20523;-77
2023/11/15 04:44:53;;;;;;;8.17;1.80;;;9.70;99.90;;;10.25;100.00;97853.72;5028438;28;20457;-77
2023/11/15 04:47:21;;;;;;;5.20;1.57;;;9.60;99.90;;;10.20;100.00;97869.97;5026477;28;20531;-78
2023/11/15 04:49:50;;;;;;;1.67;1.10;;;9.50;99.90;;;10.20;100.00;97867.38;5029392;28;20458;-77
2023/11/15 04:52:18;;;;;;;10.47;1.50;;;9.60;99.90;;;10.19;100.00;97878.81;5027518;28;20497;-77
2023/11/15 04:54:48;;;;;;;3.97;1.10;;;9.60;99.90;;;10.23;100.00;97882.66;5028401;28;20991;-78
2023/11/15 04:57:23;;;;;;;7.20;3.17;;;9.60;99.90;;;10.23;100.00;97877.44;5025983;28;20473;-77
2023/11/15 04:59:52;;;;;;;7.10;1.53;;;9.70;99.90;;;10.26;100.00;97876.25;5025567;28;20473;-78
2023/11/15 05:03:22;;;;;;;12.20;3.10;;;9.80;99.90;;;10.27;100.00;97883.09;5027034;28;20469;-78
2023/11/15 05:05:51;;;;;;;4.63;1.90;;;9.70;99.90;;;10.29;100.00;97887.13;5027783;28;20552;-78
2023/11/15 05:08:19;;;;;;;8.60;2.70;;;9.70;99.90;;;10.33;100.00;97883.13;5031299;28;20528;-77
2023/11/15 05:10:49;;;;;;;7.77;1.57;;;9.70;99.90;;;10.32;100.00;97880.69;5028141;28;20846;-77
2023/11/15 05:13:18;;;;;;;3.83;1.43;;;9.80;99.90;;;10.33;100.00;97885.75;5032783;28;20976;-77
2023/11/15 05:15:47;;;;;;;5.20;1.70;;;9.80;99.90;;;10.34;100.00;97884.75;5019995;28;20467;-77
2023/11/15 05:18:16;;;;;;;41.43;19.40;;;9.70;99.90;;;10.35;100.00;97891.59;5031663;28;20473;-75
2023/11/15 05:20:46;;;;;;;12.77;6.07;;;9.60;99.90;;;10.34;100.00;97892.59;5028347;28;20466;-77
2023/11/15 05:23:14;;;;;;;5.13;1.60;;;9.80;99.90;;;10.33;100.00;97895.41;5028137;28;20955;-77
2023/11/15 05:25:43;;;;;;;4.50;1.57;;;9.80;99.90;;;10.31;100.00;97894.78;5031068;28;20466;-77
2023/11/15 05:28:12;;;;;;;4.60;1.60;;;9.80;99.90;;;10.32;100.00;97902.44;5029668;28;20486;-77
2023/11/15 05:30:41;;;;;;;9.20;1.80;;;9.70;99.90;;;10.36;100.00;97908.09;5031179;28;20742;-78
2023/11/15 05:33:11;;;;;;;5.33;1.40;;;9.70;99.90;;;10.35;100.00;97907.28;5029593;28;20508;-78
2023/11/15 05:35:39;;;;;;;5.53;2.30;;;9.80;99.90;;;10.36;100.00;97916.75;5028777;28;20466;-78
2023/11/15 05:38:08;;;;;;;11.67;2.27;;;9.80;99.90;;;10.41;100.00;97922.19;5028770;28;20565;-79
2023/11/15 05:40:37;;;;;;;6.87;1.73;;;9.70;99.90;;;10.36;100.00;97919.34;5026418;28;20504;-78
2023/11/15 05:43:07;;;;;;;6.60;1.80;;;9.80;99.90;;;10.35;100.00;97922.13;5031129;28;20476;-78
2023/11/15 05:45:37;;;;;;;5.00;1.50;;;9.80;99.90;;;10.36;100.00;97913.31;5031851;28;20572;-78
2023/11/15 05:48:06;;;;;;;2.00;1.53;;;9.80;99.90;;;10.38;100.00;97912.13;5032552;28;20485;-78
2023/11/15 05:50:35;;;;;;;7.53;1.70;;;9.80;99.90;;;10.38;100.00;97909.50;5031934;28;20516;-77
2023/11/15 05:53:05;;;;;;;3.13;1.37;;;9.80;99.90;;;10.37;100.00;97909.72;5029479;28;20497;-78
2023/11/15 05:55:34;;;;;;;12.77;2.10;;;9.80;99.90;;;10.31;100.00;97915.69;5029299;28;20516;-77
2023/11/15 05:58:04;;;;;;;4.10;1.60;;;9.80;99.90;;;10.31;100.00;97921.72;5030200;28;20476;-78
2023/11/15 06:00:33;;;;;;;7.87;2.20;;;9.80;99.90;;;10.34;100.00;97929.19;5031822;28;20469;-78
2023/11/15 06:03:03;;;;;;;5.17;1.40;;;9.80;99.90;;;10.35;100.00;97927.38;5028870;28;20455;-78
2023/11/15 06:05:32;;;;;;;7.10;1.43;;;9.80;99.90;;;10.37;100.00;97934.03;5030870;28;20508;-77
2023/11/15 06:08:00;;;;;;;3.43;1.70;;;9.80;99.90;;;10.36;100.00;97944.69;5030458;28;21240;-77
2023/11/15 06:10:32;;;;;;;4.10;1.63;;;9.80;99.90;;;10.38;100.00;97953.94;5029337;28;20469;-77
2023/11/15 06:13:01;;;;;;;9.80;1.70;;;9.70;99.90;;;10.36;100.00;97949.91;5029105;28;20493;-78
2023/11/15 06:15:29;;;;;;;10.57;1.50;;;9.70;99.90;;;10.35;100.00;97948.28;5029917;28;20458;-77
2023/11/15 06:17:58;;;;;;;1.90;1.33;;;9.70;99.90;;;10.34;100.00;97950.09;5029429;28;21216;-77
2023/11/15 06:20:29;;;;;;;7.23;1.73;;;9.80;99.90;;;10.31;100.00;97942.63;5028268;28;21483;-78
2023/11/15 06:22:58;;;;;;;2.57;1.53;;;9.80;99.90;;;10.34;100.00;97957.94;5027442;28;20547;-77
2023/11/15 06:25:27;;;;;;;3.40;1.40;;;9.80;99.90;;;10.38;100.00;97961.78;5030544;28;20476;-77
2023/11/15 06:27:56;;;;;;;12.07;2.27;;;9.80;99.90;;;10.36;100.00;97976.84;5028602;28;20490;-78
2023/11/15 06:30:25;;;;;;;4.70;1.53;;;9.80;99.90;;;10.38;100.00;97968.81;5032577;28;20527;-77
2023/11/15 06:32:53;;;;;;;12.40;1.93;;;9.80;99.90;;;10.37;100.00;97968.03;5032036;28;20473;-78
2023/11/15 06:35:22;;;;;;;7.27;2.17;;;9.80;99.90;;;10.40;100.00;97977.28;5030119;28;20473;-78
2023/11/15 06:37:54;;;;;;;3.40;1.37;;;9.70;99.90;;;10.40;100.00;97972.88;5031082;28;20878;-78
2023/11/15 06:40:22;;;;;;;7.20;1.80;;;9.80;99.90;;;10.42;100.00;97976.09;5033819;28;20462;-77
2023/11/15 06:42:51;;;;;;;6.47;1.50;;;9.80;99.90;;;10.44;100.00;97974.13;5029315;28;20457;-77
2023/11/15 06:45:20;;;;;;;8.63;1.57;;;9.80;99.90;;;10.47;100.00;97973.75;5030195;28;20523;-78
2023/11/15 06:47:51;;;;;;;4.30;1.33;;;9.90;99.90;;;10.47;100.00;97984.19;5030944;28;20479;-78
2023/11/15 06:50:19;;;;;;;7.20;1.70;;;9.90;99.90;;;10.47;100.00;97984.19;5028845;28;20490;-78
2023/11/15 06:52:48;;;;;;;3.90;1.47;;;9.90;99.90;;;10.47;100.00;97992.03;5028508;28;20977;-77
2023/11/15 06:55:18;;;;;;;9.33;2.20;;;9.90;99.90;;;10.47;100.00;97999.88;5027858;28;20498;-78
2023/11/15 06:57:47;;;;;;;6.23;1.50;;;9.80;99.90;;;10.50;100.00;98001.31;5028803;28;20466;-77
2023/11/15 07:00:16;;;;;;;2.30;1.23;;;9.90;99.90;;;10.50;100.00;98004.72;5031392;28;20458;-78
2023/11/15 07:02:44;;;;;;;4.93;1.90;;;9.80;99.90;;;10.55;100.00;98010.19;5028057;28;20528;-79
2023/11/15 07:05:14;;;;;;;6.27;2.53;;;9.90;99.90;;;10.54;100.00;98011.22;5025787;28;20545;-78
2023/11/15 07:07:42;;;;;;;4.67;1.80;;;9.90;99.90;;;10.57;100.00;98016.06;5029152;28;20503;-78
2023/11/15 07:10:15;;;;;;;4.07;1.70;;;9.90;99.90;;;10.58;100.00;98019.50;5027962;28;20460;-78
2023/11/15 07:12:47;;;;;;;10.17;1.60;;;10.00;99.90;;;10.59;100.00;98019.28;5026850;28;20462;-79
2023/11/15 07:15:18;;;;;;;6.53;1.83;;;10.00;99.90;;;10.57;100.00;98017.88;5029802;28;20496;-78
2023/11/15 07:17:47;;;;;;;4.20;1.70;;;10.00;99.90;;;10.56;100.00;98027.50;5029253;28;20470;-79
2023/11/15 07:20:20;;;;;;;5.83;1.83;;;10.00;99.90;;;10.60;100.00;98026.16;5027956;28;20467;-78
2023/11/15 07:22:49;;;;;;;8.17;1.10;;;10.00;99.90;;;10.64;100.00;98036.22;5028710;28;20540;-78
2023/11/15 07:25:18;;;;;;;2.37;1.30;;;10.10;99.90;;;10.64;100.00;98031.00;5030126;28;20468;-78
2023/11/15 07:27:49;;;;;;;7.20;1.27;;;10.00;99.90;;;10.65;100.00;98035.22;5029078;28;20481;-78
2023/11/15 07:30:18;;;;;;;2.57;1.37;;;9.90;99.90;;;10.65;100.00;98037.84;5030240;28;20472;-78
2023/11/15 07:32:48;;;;;;;4.30;1.50;;;9.90;99.90;;;10.63;100.00;98042.44;5028758;28;20465;-78
2023/11/15 07:35:18;;;;;;;2.87;1.33;;;10.00;99.90;;;10.66;100.00;98049.91;5028760;28;20895;-79
2023/11/15 07:37:47;;;;;;;2.60;1.07;;;10.00;99.90;;;10.65;100.00;98048.31;5027598;28;20472;-78
2023/11/15 07:40:16;;;;;;;8.07;1.60;;;10.00;99.90;;;10.64;100.00;98062.38;5027434;28;20972;-79
2023/11/15 07:42:45;;;;;;;4.83;2.10;;;10.00;99.90;;;10.65;100.00;98062.19;5030373;28;21066;-78
2023/11/15 07:45:17;;;;;;;6.73;1.53;;;10.00;99.90;;;10.70;100.00;98066.84;5027701;28;21022;-79
2023/11/15 07:47:46;;;;;;;5.50;1.83;;;10.00;99.90;;;10.68;100.00;98064.44;5028870;28;20485;-78
2023/11/15 07:50:17;;;;;;;4.23;1.40;;;10.00;99.90;;;10.72;100.00;98059.63;5033185;28;20974;-78
2023/11/15 07:52:46;;;;;;;4.20;1.47;;;10.10;99.90;;;10.73;100.00;98066.47;5032920;28;20545;-78
2023/11/15 07:55:15;;;;;;;7.03;1.20;;;10.10;99.90;;;10.75;100.00;98065.31;5032816;28;20489;-78
2023/11/15 07:57:43;;;;;;;5.90;1.50;;;10.20;99.90;;;10.76;100.00;98061.69;5033439;28;20461;-78
2023/11/15 08:00:15;;;;;;;11.80;1.47;;;10.10;99.90;;;10.77;100.00;98070.34;5032462;28;20515;-78
2023/11/15 08:02:44;;;;;;;3.60;1.40;;;10.10;99.90;;;10.75;100.00;98070.53;5032892;28;20484;-78
2023/11/15 08:05:14;;;;;;;4.33;1.43;;;10.20;99.90;;;10.73;100.00;98071.69;5035327;28;20476;-78
2023/11/15 08:07:42;;;;;;;7.40;1.37;;;10.30;99.90;;;10.76;100.00;98068.75;5033213;28;20497;-78
2023/11/15 08:10:13;;;;;;;13.10;1.87;;;10.20;99.90;;;10.76;100.00;98055.66;5031853;28;20468;-78
2023/11/15 08:12:44;;;;;;;4.13;1.30;;;10.30;99.90;;;10.75;100.00;98067.13;5033640;28;20520;-78
2023/11/15 08:15:15;;;;;;;3.10;1.70;;;10.30;99.90;;;10.75;100.00;98067.13;5032118;28;20489;-78
2023/11/15 08:17:46;;;;;;;8.53;1.70;;;10.20;99.90;;;10.77;100.00;98071.16;5032803;28;20454;-78
2023/11/15 08:20:17;;;;;;;5.20;1.40;;;10.20;99.90;;;10.80;100.00;98072.56;5033933;28;20457;-78
2023/11/15 08:22:46;;;;;;;17.53;1.93;;;10.30;99.90;;;10.84;100.00;98073.81;5033516;28;20503;-78
2023/11/15 08:25:15;;;;;;;7.93;1.80;;;10.30;99.90;;;10.86;100.00;98083.13;5031406;28;21451;-78
2023/11/15 08:27:43;;;;;;;10.63;1.60;;;10.30;99.90;;;10.89;100.00;98081.94;5029551;28;20485;-78
2023/11/15 08:30:17;;;;;;;10.23;1.40;;;10.30;99.90;;;10.87;100.00;98081.28;5033424;28;20465;-78
2023/11/15 08:32:47;;;;;;;9.43;1.47;;;10.30;99.90;;;10.84;100.00;98081.66;5034872;28;20486;-78
2023/11/15 08:35:17;;;;;;;6.00;1.70;;;10.20;99.90;;;10.86;100.00;98090.16;5033708;28;20506;-78
2023/11/15 08:37:45;;;;;;;6.80;1.70;;;10.20;99.90;;;10.88;100.00;98094.19;5030213;28;20466;-79
2023/11/15 08:40:16;;;;;;;4.40;2.10;;;10.20;99.90;;;10.94;100.00;98100.47;5033858;28;20465;-79
2023/11/15 08:42:56;;;;;;;7.03;2.03;;;10.20;99.90;;;10.93;100.00;98097.03;5032247;28;20458;-78
2023/11/15 08:45:27;;;;;;;6.23;1.53;;;10.30;99.90;;;10.95;100.00;98102.09;5032785;28;20887;-78
2023/11/15 08:47:57;;;;;;;3.97;1.50;;;10.30;99.90;;;10.97;100.00;98115.78;5033533;28;20848;-78
2023/11/15 08:50:27;;;;;;;4.47;1.30;;;10.40;99.90;;;10.96;100.00;98115.00;5034903;28;20475;-78
2023/11/15 08:52:56;;;;;;;9.67;1.70;;;10.40;99.90;;;10.98;100.00;98117.41;5034490;28;20461;-78
2023/11/15 08:55:25;;;;;;;4.80;1.33;;;10.40;99.90;;;10.99;100.00;98116.44;5031752;28;20501;-78
2023/11/15 08:57:53;;;;;;;4.73;1.37;;;10.40;99.90;;;10.96;100.00;98114.19;5031084;28;20462;-78
2023/11/15 09:00:24;;;;;;;7.17;1.90;;;10.40;99.90;;;10.93;100.00;98120.59;5031046;28;20501;-78
2023/11/15 09:02:54;;;;;;;3.23;1.13;;;10.40;99.90;;;10.95;100.00;98123.03;5029452;28;20493;-78
2023/11/15 09:05:24;;;;;;;8.83;2.07;;;10.30;99.90;;;10.98;100.00;98127.88;5031128;28;20529;-78
2023/11/15 09:07:53;;;;;;;4.97;1.53;;;10.40;99.90;;;10.96;100.00;98122.03;5031492;28;20465;-78
2023/11/15 09:10:22;;;;;;;3.23;1.10;;;10.40;99.90;;;10.98;100.00;98127.88;5029647;28;20821;-78
2023/11/15 09:12:52;;;;;;;3.00;1.20;;;10.40;99.90;;;10.98;100.00;98131.31;5031921;28;20469;-78
2023/11/15 09:15:24;;;;;;;9.37;2.07;;;10.40;99.90;;;10.99;100.00;98140.78;5028874;28;20501;-78
2023/11/15 09:17:54;;;;;;;10.13;1.77;;;10.40;99.90;;;11.02;100.00;98139.59;5029877;28;20474;-79
2023/11/15 09:20:27;;;;;;;6.53;1.93;;;10.40;99.90;;;11.00;100.00;98137.16;5030965;28;20470;-78
2023/11/15 09:22:57;;;;;;;2.23;1.33;;;10.40;99.90;;;11.06;100.00;98141.66;5029508;28;20496;-79
2023/11/15 09:25:26;;;;;;;3.80;1.50;;;10.40;99.90;;;11.07;100.00;98142.47;5033042;28;20462;-78
2023/11/15 09:28:00;;;;;;;2.53;1.20;;;10.50;99.90;;;11.07;100.00;98143.25;5029921;28;20495;-79
2023/11/15 09:30:30;;;;;;;16.03;2.03;;;10.40;99.90;;;11.03;100.00;98155.13;5033056;28;20501;-78
2023/11/15 09:33:05;;;;;;;3.33;1.43;;;10.30;99.90;;;11.00;100.00;98149.47;5032680;28;20487;-78
2023/11/15 09:35:36;;;;;;;3.33;1.10;;;10.30;99.90;;;11.00;100.00;98152.06;5032308;28;20498;-78
2023/11/15 09:38:10;;;;;;;7.20;1.30;;;10.30;99.90;;;10.99;100.00;98159.09;5029711;28;20458;-78
2023/11/15 09:40:39;;;;;;;4.50;1.80;;;10.40;99.90;;;11.00;100.00;98162.53;5030766;28;20975;-79
2023/11/15 09:43:10;;;;;;;3.30;1.30;;;10.40;99.90;;;11.03;100.00;98157.75;5031063;28;20462;-78
2023/11/15 09:45:42;;;;;;;4.93;1.20;;;10.40;99.90;;;11.02;100.00;98157.91;5032720;28;20948;-78
2023/11/15 09:48:13;;;;;;;2.73;1.27;;;10.30;99.90;;;11.05;100.00;98154.94;5031847;28;20473;-78
2023/11/15 09:50:49;;;;;;;3.60;1.20;;;10.40;99.90;;;11.02;100.00;98150.88;5032946;28;20457;-78
2023/11/15 09:53:24;;;;;;;2.77;1.50;;;10.30;99.90;;;11.03;100.00;98151.69;5033922;28;20461;-78
2023/11/15 09:55:53;;;;;;;6.70;1.50;;;10.20;99.90;;;11.06;100.00;98143.47;5029588;28;20569;-78
2023/11/15 09:58:22;;;;;;;3.73;1.10;;;10.30;99.90;;;11.08;100.00;98147.50;5031570;28;20458;-78
2023/11/15 10:00:52;;;;;;;7.83;1.47;;;10.40;99.90;;;11.11;100.00;98154.16;5031272;28;20470;-78
2023/11/15 10:03:22;;;;;;;6.93;1.63;;;10.40;99.90;;;11.16;100.00;98151.00;5028757;28;20489;-78
2023/11/15 10:05:59;;;;;;;4.70;1.20;;;10.50;99.90;;;11.15;100.00;98155.41;5030209;28;20498;-78
2023/11/15 10:08:29;;;;;;;1.80;0.83;;;10.60;99.90;;;11.16;100.00;98157.03;5030056;28;20462;-78
2023/11/15 10:11:08;;;;;;;2.50;1.20;;;10.60;99.90;;;11.12;100.00;98161.03;5030780;28;20473;-78
2023/11/15 10:13:37;;;;;;;2.53;1.10;;;10.50;99.90;;;11.15;100.00;98160.66;5031816;28;20464;-79
2023/11/15 10:16:24;;;;;;;3.30;0.90;;;10.60;99.90;;;11.13;100.00;98154.81;5030339;28;20500;-78
2023/11/15 10:18:55;;;;;;;5.13;1.27;;;10.60;99.90;;;11.07;100.00;98151.13;5033382;28;20457;-78
2023/11/15 10:21:24;;;;;;;5.50;1.10;;;10.40;99.90;;;11.06;100.00;98159.16;5032848;28;20624;-78
2023/11/15 10:24:11;;;;;;;2.10;0.90;;;10.40;99.90;;;10.98;100.00;98154.06;5031508;28;20467;-78
2023/11/15 10:26:40;;;;;;;2.90;1.10;;;10.20;99.90;;;10.96;100.00;98156.88;5029618;28;20482;-78